sensor_id;sensor_type;location;lat;lon;timestamp;P1;durP1;ratioP1;P2;durP2;ratioP2
72053;SDS011;59918;51.280;7.950;2023-10-08T00:00:51;14.23;;;4.50;;
72053;SDS011;59918;51.280;7.950;2023-10-08T00:03:16;12.32;;;4.85;;
72053;SDS011;59918;51.280;7.950;2023-10-08T00:05:41;5.60;;;4.18;;
72053;SDS011;59918;51.280;7.950;2023-10-08T00:08:07;6.43;;;3.97;;
72053;SDS011;59918;51.280;7.950;2023-10-08T00:10:38;7.93;;;4.47;;
72053;SDS011;59918;51.280;7.950;2023-10-08T00:13:04;7.72;;;4.47;;
72053;SDS011;59918;51.280;7.950;2023-10-08T00:15:29;7.45;;;4.20;;
72053;SDS011;59918;51.280;7.950;2023-10-08T00:17:55;10.48;;;4.53;;
72053;SDS011;59918;51.280;7.950;2023-10-08T00:20:20;6.60;;;4.05;;
72053;SDS011;59918;51.280;7.950;2023-10-08T00:22:45;6.65;;;3.83;;
72053;SDS011;59918;51.280;7.950;2023-10-08T00:25:10;8.02;;;4.57;;
72053;SDS011;59918;51.280;7.950;2023-10-08T00:27:36;8.60;;;4.10;;
72053;SDS011;59918;51.280;7.950;2023-10-08T00:30:01;5.63;;;3.95;;
72053;SDS011;59918;51.280;7.950;2023-10-08T00:32:26;8.30;;;4.13;;
72053;SDS011;59918;51.280;7.950;2023-10-08T00:34:51;8.70;;;4.20;;
72053;SDS011;59918;51.280;7.950;2023-10-08T00:37:17;8.32;;;4.50;;
72053;SDS011;59918;51.280;7.950;2023-10-08T00:39:42;11.33;;;4.80;;
72053;SDS011;59918;51.280;7.950;2023-10-08T00:42:07;7.07;;;3.60;;
72053;SDS011;59918;51.280;7.950;2023-10-08T00:44:33;11.38;;;4.15;;
72053;SDS011;59918;51.280;7.950;2023-10-08T00:46:59;8.68;;;4.57;;
72053;SDS011;59918;51.280;7.950;2023-10-08T00:49:27;8.43;;;3.92;;
72053;SDS011;59918;51.280;7.950;2023-10-08T00:51:56;9.85;;;4.07;;
72053;SDS011;59918;51.280;7.950;2023-10-08T00:54:24;11.50;;;4.43;;
72053;SDS011;59918;51.280;7.950;2023-10-08T00:56:49;10.02;;;4.93;;
72053;SDS011;59918;51.280;7.950;2023-10-08T00:59:14;11.63;;;4.25;;
72053;SDS011;59918;51.280;7.950;2023-10-08T01:01:43;5.75;;;4.03;;
72053;SDS011;59918;51.280;7.950;2023-10-08T01:04:09;7.07;;;4.07;;
72053;SDS011;59918;51.280;7.950;2023-10-08T01:06:35;9.07;;;4.18;;
72053;SDS011;59918;51.280;7.950;2023-10-08T01:09:00;14.43;;;4.50;;
72053;SDS011;59918;51.280;7.950;2023-10-08T01:11:25;7.10;;;4.13;;
72053;SDS011;59918;51.280;7.950;2023-10-08T01:13:51;8.35;;;4.13;;
72053;SDS011;59918;51.280;7.950;2023-10-08T01:16:16;8.95;;;4.70;;
72053;SDS011;59918;51.280;7.950;2023-10-08T01:18:41;8.25;;;3.92;;
72053;SDS011;59918;51.280;7.950;2023-10-08T01:21:06;5.57;;;3.90;;
72053;SDS011;59918;51.280;7.950;2023-10-08T01:23:32;6.45;;;4.20;;
72053;SDS011;59918;51.280;7.950;2023-10-08T01:25:57;14.23;;;5.15;;
72053;SDS011;59918;51.280;7.950;2023-10-08T01:28:22;9.93;;;4.88;;
72053;SDS011;59918;51.280;7.950;2023-10-08T01:30:50;10.00;;;4.95;;
72053;SDS011;59918;51.280;7.950;2023-10-08T01:33:18;12.68;;;4.13;;
72053;SDS011;59918;51.280;7.950;2023-10-08T01:35:44;9.73;;;4.18;;
72053;SDS011;59918;51.280;7.950;2023-10-08T01:38:09;8.00;;;4.57;;
72053;SDS011;59918;51.280;7.950;2023-10-08T01:40:34;6.95;;;3.92;;
72053;SDS011;59918;51.280;7.950;2023-10-08T01:42:59;7.45;;;4.40;;
72053;SDS011;59918;51.280;7.950;2023-10-08T01:45:25;9.38;;;4.32;;
72053;SDS011;59918;51.280;7.950;2023-10-08T01:47:51;6.18;;;3.72;;
72053;SDS011;59918;51.280;7.950;2023-10-08T01:50:16;8.32;;;4.53;;
72053;SDS011;59918;51.280;7.950;2023-10-08T01:52:41;7.65;;;4.40;;
72053;SDS011;59918;51.280;7.950;2023-10-08T01:55:07;10.35;;;4.65;;
72053;SDS011;59918;51.280;7.950;2023-10-08T01:57:32;10.85;;;5.00;;
72053;SDS011;59918;51.280;7.950;2023-10-08T01:59:57;8.07;;;4.40;;
72053;SDS011;59918;51.280;7.950;2023-10-08T02:02:22;8.82;;;4.28;;
72053;SDS011;59918;51.280;7.950;2023-10-08T02:04:48;8.98;;;4.63;;
72053;SDS011;59918;51.280;7.950;2023-10-08T02:07:13;12.02;;;5.82;;
72053;SDS011;59918;51.280;7.950;2023-10-08T02:09:41;9.18;;;4.28;;
72053;SDS011;59918;51.280;7.950;2023-10-08T02:12:06;11.20;;;4.47;;
72053;SDS011;59918;51.280;7.950;2023-10-08T02:14:32;10.05;;;4.72;;
72053;SDS011;59918;51.280;7.950;2023-10-08T02:16:58;10.90;;;5.20;;
72053;SDS011;59918;51.280;7.950;2023-10-08T02:19:23;12.65;;;6.30;;
72053;SDS011;59918;51.280;7.950;2023-10-08T02:21:48;13.60;;;5.30;;
72053;SDS011;59918;51.280;7.950;2023-10-08T02:24:14;9.80;;;5.40;;
72053;SDS011;59918;51.280;7.950;2023-10-08T02:26:39;13.10;;;5.15;;
72053;SDS011;59918;51.280;7.950;2023-10-08T02:29:05;13.07;;;5.47;;
72053;SDS011;59918;51.280;7.950;2023-10-08T02:31:30;16.45;;;5.22;;
72053;SDS011;59918;51.280;7.950;2023-10-08T02:33:56;14.35;;;6.28;;
72053;SDS011;59918;51.280;7.950;2023-10-08T02:36:21;16.55;;;6.05;;
72053;SDS011;59918;51.280;7.950;2023-10-08T02:38:46;11.85;;;5.25;;
72053;SDS011;59918;51.280;7.950;2023-10-08T02:41:17;16.25;;;6.03;;
72053;SDS011;59918;51.280;7.950;2023-10-08T02:43:43;16.08;;;5.85;;
72053;SDS011;59918;51.280;7.950;2023-10-08T02:46:08;10.20;;;5.70;;
72053;SDS011;59918;51.280;7.950;2023-10-08T02:48:33;12.75;;;5.90;;
72053;SDS011;59918;51.280;7.950;2023-10-08T02:50:59;15.63;;;6.07;;
72053;SDS011;59918;51.280;7.950;2023-10-08T02:53:24;18.63;;;7.60;;
72053;SDS011;59918;51.280;7.950;2023-10-08T02:55:49;14.30;;;6.57;;
72053;SDS011;59918;51.280;7.950;2023-10-08T02:58:15;16.48;;;6.97;;
72053;SDS011;59918;51.280;7.950;2023-10-08T03:00:44;16.33;;;6.18;;
72053;SDS011;59918;51.280;7.950;2023-10-08T03:03:11;10.15;;;6.07;;
72053;SDS011;59918;51.280;7.950;2023-10-08T03:05:36;18.42;;;6.22;;
72053;SDS011;59918;51.280;7.950;2023-10-08T03:08:04;17.52;;;6.65;;
72053;SDS011;59918;51.280;7.950;2023-10-08T03:10:30;11.35;;;6.40;;
72053;SDS011;59918;51.280;7.950;2023-10-08T03:12:55;14.48;;;6.10;;
72053;SDS011;59918;51.280;7.950;2023-10-08T03:15:20;12.45;;;5.82;;
72053;SDS011;59918;51.280;7.950;2023-10-08T03:17:45;13.32;;;6.10;;
72053;SDS011;59918;51.280;7.950;2023-10-08T03:20:11;10.00;;;5.22;;
72053;SDS011;59918;51.280;7.950;2023-10-08T03:22:36;12.82;;;5.13;;
72053;SDS011;59918;51.280;7.950;2023-10-08T03:25:02;10.73;;;5.57;;
72053;SDS011;59918;51.280;7.950;2023-10-08T03:27:27;16.23;;;5.80;;
72053;SDS011;59918;51.280;7.950;2023-10-08T03:29:52;10.63;;;6.05;;
72053;SDS011;59918;51.280;7.950;2023-10-08T03:32:17;19.00;;;7.32;;
72053;SDS011;59918;51.280;7.950;2023-10-08T03:34:43;11.23;;;5.72;;
72053;SDS011;59918;51.280;7.950;2023-10-08T03:37:13;13.57;;;5.75;;
72053;SDS011;59918;51.280;7.950;2023-10-08T03:39:39;12.75;;;5.47;;
72053;SDS011;59918;51.280;7.950;2023-10-08T03:42:05;12.52;;;5.60;;
72053;SDS011;59918;51.280;7.950;2023-10-08T03:44:30;13.02;;;5.50;;
72053;SDS011;59918;51.280;7.950;2023-10-08T03:46:55;12.98;;;6.03;;
72053;SDS011;59918;51.280;7.950;2023-10-08T03:49:20;12.05;;;5.85;;
72053;SDS011;59918;51.280;7.950;2023-10-08T03:51:46;13.48;;;6.10;;
72053;SDS011;59918;51.280;7.950;2023-10-08T03:54:11;13.13;;;6.95;;
72053;SDS011;59918;51.280;7.950;2023-10-08T03:56:36;13.82;;;6.68;;
72053;SDS011;59918;51.280;7.950;2023-10-08T03:59:02;15.68;;;6.63;;
72053;SDS011;59918;51.280;7.950;2023-10-08T04:01:28;17.25;;;6.40;;
72053;SDS011;59918;51.280;7.950;2023-10-08T04:03:53;12.88;;;6.57;;
72053;SDS011;59918;51.280;7.950;2023-10-08T04:06:19;13.63;;;6.35;;
72053;SDS011;59918;51.280;7.950;2023-10-08T04:08:45;22.15;;;6.82;;
72053;SDS011;59918;51.280;7.950;2023-10-08T04:11:10;11.68;;;6.15;;
72053;SDS011;59918;51.280;7.950;2023-10-08T04:13:35;11.15;;;6.30;;
72053;SDS011;59918;51.280;7.950;2023-10-08T04:16:01;11.05;;;6.28;;
72053;SDS011;59918;51.280;7.950;2023-10-08T04:18:26;13.80;;;6.70;;
72053;SDS011;59918;51.280;7.950;2023-10-08T04:20:51;12.68;;;6.20;;
72053;SDS011;59918;51.280;7.950;2023-10-08T04:23:17;17.90;;;7.43;;
72053;SDS011;59918;51.280;7.950;2023-10-08T04:25:43;14.27;;;6.68;;
72053;SDS011;59918;51.280;7.950;2023-10-08T04:28:08;14.85;;;7.05;;
72053;SDS011;59918;51.280;7.950;2023-10-08T04:30:34;15.80;;;7.13;;
72053;SDS011;59918;51.280;7.950;2023-10-08T04:33:00;12.07;;;6.53;;
72053;SDS011;59918;51.280;7.950;2023-10-08T04:35:29;16.63;;;7.32;;
72053;SDS011;59918;51.280;7.950;2023-10-08T04:37:54;14.13;;;5.90;;
72053;SDS011;59918;51.280;7.950;2023-10-08T04:40:19;13.60;;;6.73;;
72053;SDS011;59918;51.280;7.950;2023-10-08T04:42:44;10.82;;;6.10;;
72053;SDS011;59918;51.280;7.950;2023-10-08T04:45:10;15.40;;;7.38;;
72053;SDS011;59918;51.280;7.950;2023-10-08T04:47:36;12.43;;;6.05;;
72053;SDS011;59918;51.280;7.950;2023-10-08T04:50:01;13.77;;;6.30;;
72053;SDS011;59918;51.280;7.950;2023-10-08T04:52:26;14.27;;;7.20;;
72053;SDS011;59918;51.280;7.950;2023-10-08T04:54:52;14.55;;;7.35;;
72053;SDS011;59918;51.280;7.950;2023-10-08T04:57:17;14.55;;;7.35;;
72053;SDS011;59918;51.280;7.950;2023-10-08T04:59:44;16.88;;;7.10;;
72053;SDS011;59918;51.280;7.950;2023-10-08T05:02:09;19.80;;;7.50;;
72053;SDS011;59918;51.280;7.950;2023-10-08T05:04:35;19.95;;;7.00;;
72053;SDS011;59918;51.280;7.950;2023-10-08T05:07:00;10.68;;;6.88;;
72053;SDS011;59918;51.280;7.950;2023-10-08T05:09:26;19.58;;;7.28;;
72053;SDS011;59918;51.280;7.950;2023-10-08T05:11:52;22.70;;;8.07;;
72053;SDS011;59918;51.280;7.950;2023-10-08T05:14:18;19.42;;;7.70;;
72053;SDS011;59918;51.280;7.950;2023-10-08T05:16:45;16.38;;;7.65;;
72053;SDS011;59918;51.280;7.950;2023-10-08T05:19:10;14.00;;;7.05;;
72053;SDS011;59918;51.280;7.950;2023-10-08T05:21:36;17.30;;;8.30;;
72053;SDS011;59918;51.280;7.950;2023-10-08T05:24:01;16.55;;;7.05;;
72053;SDS011;59918;51.280;7.950;2023-10-08T05:26:26;15.85;;;7.35;;
72053;SDS011;59918;51.280;7.950;2023-10-08T05:28:51;15.32;;;7.43;;
72053;SDS011;59918;51.280;7.950;2023-10-08T05:31:16;18.27;;;7.85;;
72053;SDS011;59918;51.280;7.950;2023-10-08T05:33:42;15.88;;;7.07;;
72053;SDS011;59918;51.280;7.950;2023-10-08T05:36:08;16.77;;;8.13;;
72053;SDS011;59918;51.280;7.950;2023-10-08T05:38:33;19.15;;;7.80;;
72053;SDS011;59918;51.280;7.950;2023-10-08T05:40:58;18.67;;;8.40;;
72053;SDS011;59918;51.280;7.950;2023-10-08T05:43:24;18.83;;;9.32;;
72053;SDS011;59918;51.280;7.950;2023-10-08T05:45:53;21.25;;;8.23;;
72053;SDS011;59918;51.280;7.950;2023-10-08T05:48:18;27.63;;;9.20;;
72053;SDS011;59918;51.280;7.950;2023-10-08T05:50:43;14.65;;;8.70;;
72053;SDS011;59918;51.280;7.950;2023-10-08T05:53:09;14.57;;;8.70;;
72053;SDS011;59918;51.280;7.950;2023-10-08T05:55:34;18.45;;;9.50;;
72053;SDS011;59918;51.280;7.950;2023-10-08T05:58:06;22.00;;;9.40;;
72053;SDS011;59918;51.280;7.950;2023-10-08T06:02:56;19.03;;;8.60;;
72053;SDS011;59918;51.280;7.950;2023-10-08T06:05:22;20.55;;;9.30;;
72053;SDS011;59918;51.280;7.950;2023-10-08T06:07:48;20.88;;;9.25;;
72053;SDS011;59918;51.280;7.950;2023-10-08T06:12:54;18.35;;;8.65;;
72053;SDS011;59918;51.280;7.950;2023-10-08T06:15:19;20.40;;;8.98;;
72053;SDS011;59918;51.280;7.950;2023-10-08T06:17:44;20.90;;;9.20;;
72053;SDS011;59918;51.280;7.950;2023-10-08T06:20:10;18.23;;;8.52;;
72053;SDS011;59918;51.280;7.950;2023-10-08T06:22:36;22.77;;;9.95;;
72053;SDS011;59918;51.280;7.950;2023-10-08T06:25:01;21.02;;;9.73;;
72053;SDS011;59918;51.280;7.950;2023-10-08T06:27:26;28.42;;;10.57;;
72053;SDS011;59918;51.280;7.950;2023-10-08T06:29:51;31.13;;;11.48;;
72053;SDS011;59918;51.280;7.950;2023-10-08T06:32:17;26.08;;;11.63;;
72053;SDS011;59918;51.280;7.950;2023-10-08T06:34:44;28.42;;;10.50;;
72053;SDS011;59918;51.280;7.950;2023-10-08T06:37:09;20.83;;;10.77;;
72053;SDS011;59918;51.280;7.950;2023-10-08T06:39:34;27.40;;;10.02;;
72053;SDS011;59918;51.280;7.950;2023-10-08T06:42:00;27.40;;;10.82;;
72053;SDS011;59918;51.280;7.950;2023-10-08T06:44:25;24.98;;;10.05;;
72053;SDS011;59918;51.280;7.950;2023-10-08T06:46:51;29.92;;;10.00;;
72053;SDS011;59918;51.280;7.950;2023-10-08T06:49:16;20.23;;;9.48;;
72053;SDS011;59918;51.280;7.950;2023-10-08T06:51:41;25.08;;;9.63;;
72053;SDS011;59918;51.280;7.950;2023-10-08T06:54:07;20.42;;;9.82;;
72053;SDS011;59918;51.280;7.950;2023-10-08T06:56:32;22.92;;;9.60;;
72053;SDS011;59918;51.280;7.950;2023-10-08T06:58:58;24.88;;;10.20;;
72053;SDS011;59918;51.280;7.950;2023-10-08T07:01:23;24.27;;;10.45;;
72053;SDS011;59918;51.280;7.950;2023-10-08T07:03:48;22.70;;;10.65;;
72053;SDS011;59918;51.280;7.950;2023-10-08T07:06:14;22.60;;;10.48;;
72053;SDS011;59918;51.280;7.950;2023-10-08T07:08:39;30.67;;;11.32;;
72053;SDS011;59918;51.280;7.950;2023-10-08T07:11:04;29.33;;;11.50;;
72053;SDS011;59918;51.280;7.950;2023-10-08T07:13:29;29.05;;;10.30;;
72053;SDS011;59918;51.280;7.950;2023-10-08T07:15:55;24.55;;;10.82;;
72053;SDS011;59918;51.280;7.950;2023-10-08T07:18:21;23.52;;;10.23;;
72053;SDS011;59918;51.280;7.950;2023-10-08T07:20:47;21.45;;;9.75;;
72053;SDS011;59918;51.280;7.950;2023-10-08T07:23:12;22.90;;;10.25;;
72053;SDS011;59918;51.280;7.950;2023-10-08T07:25:37;21.85;;;10.65;;
72053;SDS011;59918;51.280;7.950;2023-10-08T07:28:02;20.20;;;10.38;;
72053;SDS011;59918;51.280;7.950;2023-10-08T07:30:28;27.05;;;11.43;;
72053;SDS011;59918;51.280;7.950;2023-10-08T07:32:53;21.93;;;12.10;;
72053;SDS011;59918;51.280;7.950;2023-10-08T07:35:18;23.88;;;13.50;;
72053;SDS011;59918;51.280;7.950;2023-10-08T07:37:44;33.70;;;15.50;;
72053;SDS011;59918;51.280;7.950;2023-10-08T07:40:09;39.05;;;22.00;;
72053;SDS011;59918;51.280;7.950;2023-10-08T07:42:34;45.30;;;21.95;;
72053;SDS011;59918;51.280;7.950;2023-10-08T07:45:00;42.63;;;22.35;;
72053;SDS011;59918;51.280;7.950;2023-10-08T07:47:25;45.08;;;24.45;;
72053;SDS011;59918;51.280;7.950;2023-10-08T07:49:50;40.13;;;22.77;;
72053;SDS011;59918;51.280;7.950;2023-10-08T07:52:15;45.40;;;24.48;;
72053;SDS011;59918;51.280;7.950;2023-10-08T07:54:43;39.90;;;24.85;;
72053;SDS011;59918;51.280;7.950;2023-10-08T07:57:08;44.95;;;24.58;;
72053;SDS011;59918;51.280;7.950;2023-10-08T07:59:34;38.53;;;24.98;;
72053;SDS011;59918;51.280;7.950;2023-10-08T08:02:02;41.20;;;25.25;;
72053;SDS011;59918;51.280;7.950;2023-10-08T08:04:27;40.13;;;26.73;;
72053;SDS011;59918;51.280;7.950;2023-10-08T08:06:53;39.63;;;25.23;;
72053;SDS011;59918;51.280;7.950;2023-10-08T08:09:18;37.08;;;23.90;;
72053;SDS011;59918;51.280;7.950;2023-10-08T08:11:44;27.80;;;20.13;;
72053;SDS011;59918;51.280;7.950;2023-10-08T08:14:09;28.35;;;19.70;;
72053;SDS011;59918;51.280;7.950;2023-10-08T08:16:34;21.58;;;17.35;;
72053;SDS011;59918;51.280;7.950;2023-10-08T08:18:59;25.05;;;15.70;;
72053;SDS011;59918;51.280;7.950;2023-10-08T08:21:24;22.77;;;14.23;;
72053;SDS011;59918;51.280;7.950;2023-10-08T08:23:52;27.55;;;15.18;;
72053;SDS011;59918;51.280;7.950;2023-10-08T08:26:21;21.83;;;14.27;;
72053;SDS011;59918;51.280;7.950;2023-10-08T08:28:48;22.23;;;14.37;;
72053;SDS011;59918;51.280;7.950;2023-10-08T08:31:16;21.42;;;13.75;;
72053;SDS011;59918;51.280;7.950;2023-10-08T08:33:44;22.63;;;14.15;;
72053;SDS011;59918;51.280;7.950;2023-10-08T08:36:09;23.45;;;14.07;;
72053;SDS011;59918;51.280;7.950;2023-10-08T08:38:34;22.52;;;13.57;;
72053;SDS011;59918;51.280;7.950;2023-10-08T08:41:03;24.17;;;14.52;;
72053;SDS011;59918;51.280;7.950;2023-10-08T08:43:29;22.13;;;13.98;;
72053;SDS011;59918;51.280;7.950;2023-10-08T08:45:55;26.98;;;14.93;;
72053;SDS011;59918;51.280;7.950;2023-10-08T08:48:20;30.88;;;15.10;;
72053;SDS011;59918;51.280;7.950;2023-10-08T08:50:46;24.63;;;14.25;;
72053;SDS011;59918;51.280;7.950;2023-10-08T08:53:13;24.88;;;14.27;;
72053;SDS011;59918;51.280;7.950;2023-10-08T08:55:38;23.50;;;13.15;;
72053;SDS011;59918;51.280;7.950;2023-10-08T08:58:04;26.98;;;14.50;;
72053;SDS011;59918;51.280;7.950;2023-10-08T09:00:29;27.05;;;15.10;;
72053;SDS011;59918;51.280;7.950;2023-10-08T09:02:55;25.88;;;14.30;;
72053;SDS011;59918;51.280;7.950;2023-10-08T09:05:20;21.05;;;12.30;;
72053;SDS011;59918;51.280;7.950;2023-10-08T09:10:25;22.70;;;12.90;;
72053;SDS011;59918;51.280;7.950;2023-10-08T09:12:51;25.13;;;12.43;;
72053;SDS011;59918;51.280;7.950;2023-10-08T09:15:16;21.23;;;13.05;;
72053;SDS011;59918;51.280;7.950;2023-10-08T09:17:42;19.60;;;11.90;;
72053;SDS011;59918;51.280;7.950;2023-10-08T09:20:07;22.85;;;13.23;;
72053;SDS011;59918;51.280;7.950;2023-10-08T09:22:33;20.08;;;12.77;;
72053;SDS011;59918;51.280;7.950;2023-10-08T09:24:58;19.30;;;12.18;;
72053;SDS011;59918;51.280;7.950;2023-10-08T09:27:23;17.90;;;11.75;;
72053;SDS011;59918;51.280;7.950;2023-10-08T09:29:51;19.20;;;12.52;;
72053;SDS011;59918;51.280;7.950;2023-10-08T09:32:16;20.05;;;11.63;;
72053;SDS011;59918;51.280;7.950;2023-10-08T09:34:41;19.48;;;12.00;;
72053;SDS011;59918;51.280;7.950;2023-10-08T09:37:08;19.25;;;12.13;;
72053;SDS011;59918;51.280;7.950;2023-10-08T09:39:33;17.05;;;10.82;;
72053;SDS011;59918;51.280;7.950;2023-10-08T09:41:59;52.83;;;22.70;;
72053;SDS011;59918;51.280;7.950;2023-10-08T09:44:25;22.77;;;12.00;;
72053;SDS011;59918;51.280;7.950;2023-10-08T09:46:54;11.65;;;6.47;;
72053;SDS011;59918;51.280;7.950;2023-10-08T09:50:12;8.98;;;4.97;;
72053;SDS011;59918;51.280;7.950;2023-10-08T09:52:36;12.75;;;5.70;;
72053;SDS011;59918;51.280;7.950;2023-10-08T09:55:09;8.18;;;5.53;;
72053;SDS011;59918;51.280;7.950;2023-10-08T09:57:34;13.32;;;5.97;;
72053;SDS011;59918;51.280;7.950;2023-10-08T09:59:59;13.82;;;6.53;;
72053;SDS011;59918;51.280;7.950;2023-10-08T10:02:25;10.82;;;5.90;;
72053;SDS011;59918;51.280;7.950;2023-10-08T10:04:51;12.48;;;8.38;;
72053;SDS011;59918;51.280;7.950;2023-10-08T10:07:16;14.00;;;8.07;;
72053;SDS011;59918;51.280;7.950;2023-10-08T10:09:45;16.50;;;8.93;;
72053;SDS011;59918;51.280;7.950;2023-10-08T10:12:18;14.90;;;8.77;;
72053;SDS011;59918;51.280;7.950;2023-10-08T10:14:55;14.50;;;8.73;;
72053;SDS011;59918;51.280;7.950;2023-10-08T10:17:22;13.68;;;8.57;;
72053;SDS011;59918;51.280;7.950;2023-10-08T10:19:53;15.25;;;8.65;;
72053;SDS011;59918;51.280;7.950;2023-10-08T10:24:56;10.80;;;8.13;;
72053;SDS011;59918;51.280;7.950;2023-10-08T10:27:22;12.60;;;7.32;;
72053;SDS011;59918;51.280;7.950;2023-10-08T10:29:47;13.45;;;7.68;;
72053;SDS011;59918;51.280;7.950;2023-10-08T10:32:12;14.95;;;7.43;;
72053;SDS011;59918;51.280;7.950;2023-10-08T10:34:39;12.85;;;7.30;;
72053;SDS011;59918;51.280;7.950;2023-10-08T10:37:04;9.05;;;5.90;;
72053;SDS011;59918;51.280;7.950;2023-10-08T10:39:30;15.43;;;6.72;;
72053;SDS011;59918;51.280;7.950;2023-10-08T10:41:57;11.43;;;5.85;;
72053;SDS011;59918;51.280;7.950;2023-10-08T10:44:24;10.82;;;6.35;;
72053;SDS011;59918;51.280;7.950;2023-10-08T10:46:50;8.38;;;3.70;;
72053;SDS011;59918;51.280;7.950;2023-10-08T10:49:15;7.57;;;3.60;;
72053;SDS011;59918;51.280;7.950;2023-10-08T10:51:41;7.38;;;3.55;;
72053;SDS011;59918;51.280;7.950;2023-10-08T10:54:07;9.82;;;3.60;;
72053;SDS011;59918;51.280;7.950;2023-10-08T10:56:32;9.85;;;3.60;;
72053;SDS011;59918;51.280;7.950;2023-10-08T10:59:00;8.95;;;3.28;;
72053;SDS011;59918;51.280;7.950;2023-10-08T11:01:27;7.30;;;3.55;;
72053;SDS011;59918;51.280;7.950;2023-10-08T11:03:52;14.15;;;4.70;;
72053;SDS011;59918;51.280;7.950;2023-10-08T11:06:21;8.10;;;4.40;;
72053;SDS011;59918;51.280;7.950;2023-10-08T11:08:47;9.48;;;3.92;;
72053;SDS011;59918;51.280;7.950;2023-10-08T11:11:16;8.20;;;3.92;;
72053;SDS011;59918;51.280;7.950;2023-10-08T11:13:42;11.63;;;3.90;;
72053;SDS011;59918;51.280;7.950;2023-10-08T11:16:08;8.45;;;3.90;;
72053;SDS011;59918;51.280;7.950;2023-10-08T11:18:33;9.32;;;4.55;;
72053;SDS011;59918;51.280;7.950;2023-10-08T11:21:06;12.27;;;4.70;;
72053;SDS011;59918;51.280;7.950;2023-10-08T11:23:34;9.27;;;4.68;;
72053;SDS011;59918;51.280;7.950;2023-10-08T11:26:01;12.13;;;5.55;;
72053;SDS011;59918;51.280;7.950;2023-10-08T11:31:20;7.85;;;4.00;;
72053;SDS011;59918;51.280;7.950;2023-10-08T11:33:45;11.95;;;4.78;;
72053;SDS011;59918;51.280;7.950;2023-10-08T11:36:11;10.77;;;4.82;;
72053;SDS011;59918;51.280;7.950;2023-10-08T11:38:42;11.27;;;4.65;;
72053;SDS011;59918;51.280;7.950;2023-10-08T11:41:14;12.32;;;4.78;;
72053;SDS011;59918;51.280;7.950;2023-10-08T11:43:40;15.15;;;5.07;;
72053;SDS011;59918;51.280;7.950;2023-10-08T11:46:05;14.07;;;5.82;;
72053;SDS011;59918;51.280;7.950;2023-10-08T11:48:31;11.45;;;5.40;;
72053;SDS011;59918;51.280;7.950;2023-10-08T11:50:56;14.35;;;5.47;;
72053;SDS011;59918;51.280;7.950;2023-10-08T11:53:21;11.85;;;5.55;;
72053;SDS011;59918;51.280;7.950;2023-10-08T11:55:46;13.30;;;6.03;;
72053;SDS011;59918;51.280;7.950;2023-10-08T11:58:12;15.10;;;7.15;;
72053;SDS011;59918;51.280;7.950;2023-10-08T12:03:03;17.05;;;6.53;;
72053;SDS011;59918;51.280;7.950;2023-10-08T12:05:28;16.88;;;5.82;;
72053;SDS011;59918;51.280;7.950;2023-10-08T12:07:54;14.05;;;6.13;;
72053;SDS011;59918;51.280;7.950;2023-10-08T12:10:19;11.55;;;6.60;;
72053;SDS011;59918;51.280;7.950;2023-10-08T12:12:45;13.40;;;5.65;;
72053;SDS011;59918;51.280;7.950;2023-10-08T12:15:10;17.50;;;6.63;;
72053;SDS011;59918;51.280;7.950;2023-10-08T12:17:35;17.98;;;7.57;;
72053;SDS011;59918;51.280;7.950;2023-10-08T12:20:00;12.60;;;6.97;;
72053;SDS011;59918;51.280;7.950;2023-10-08T12:22:26;17.55;;;6.82;;
72053;SDS011;59918;51.280;7.950;2023-10-08T12:24:51;16.83;;;7.65;;
72053;SDS011;59918;51.280;7.950;2023-10-08T12:27:16;15.30;;;6.47;;
72053;SDS011;59918;51.280;7.950;2023-10-08T12:29:42;10.15;;;6.65;;
72053;SDS011;59918;51.280;7.950;2023-10-08T12:32:08;14.60;;;7.25;;
72053;SDS011;59918;51.280;7.950;2023-10-08T12:34:33;14.63;;;6.70;;
72053;SDS011;59918;51.280;7.950;2023-10-08T12:36:58;16.27;;;7.97;;
72053;SDS011;59918;51.280;7.950;2023-10-08T12:39:23;17.33;;;8.43;;
72053;SDS011;59918;51.280;7.950;2023-10-08T12:41:49;16.70;;;7.78;;
72053;SDS011;59918;51.280;7.950;2023-10-08T12:44:14;18.27;;;8.57;;
72053;SDS011;59918;51.280;7.950;2023-10-08T12:46:39;15.70;;;7.35;;
72053;SDS011;59918;51.280;7.950;2023-10-08T12:49:05;15.90;;;8.07;;
72053;SDS011;59918;51.280;7.950;2023-10-08T12:51:30;14.48;;;8.15;;
72053;SDS011;59918;51.280;7.950;2023-10-08T12:53:56;16.73;;;8.40;;
72053;SDS011;59918;51.280;7.950;2023-10-08T12:56:21;20.63;;;8.73;;
72053;SDS011;59918;51.280;7.950;2023-10-08T12:58:46;16.30;;;9.32;;
72053;SDS011;59918;51.280;7.950;2023-10-08T13:01:11;18.40;;;9.35;;
72053;SDS011;59918;51.280;7.950;2023-10-08T13:03:37;21.15;;;10.10;;
72053;SDS011;59918;51.280;7.950;2023-10-08T13:06:02;23.50;;;11.63;;
72053;SDS011;59918;51.280;7.950;2023-10-08T13:08:28;21.98;;;11.40;;
72053;SDS011;59918;51.280;7.950;2023-10-08T13:10:53;17.60;;;9.80;;
72053;SDS011;59918;51.280;7.950;2023-10-08T13:13:18;18.98;;;10.00;;
72053;SDS011;59918;51.280;7.950;2023-10-08T13:15:43;20.67;;;9.52;;
72053;SDS011;59918;51.280;7.950;2023-10-08T13:18:09;18.15;;;9.50;;
72053;SDS011;59918;51.280;7.950;2023-10-08T13:20:34;21.83;;;10.60;;
72053;SDS011;59918;51.280;7.950;2023-10-08T13:23:02;17.63;;;9.82;;
72053;SDS011;59918;51.280;7.950;2023-10-08T13:25:28;20.45;;;9.82;;
72053;SDS011;59918;51.280;7.950;2023-10-08T13:27:54;13.85;;;8.52;;
72053;SDS011;59918;51.280;7.950;2023-10-08T13:30:19;16.98;;;9.30;;
72053;SDS011;59918;51.280;7.950;2023-10-08T13:32:44;16.10;;;9.32;;
72053;SDS011;59918;51.280;7.950;2023-10-08T13:35:09;19.35;;;9.40;;
72053;SDS011;59918;51.280;7.950;2023-10-08T13:37:35;20.05;;;9.57;;
72053;SDS011;59918;51.280;7.950;2023-10-08T13:40:00;14.00;;;8.98;;
72053;SDS011;59918;51.280;7.950;2023-10-08T13:42:26;20.67;;;10.85;;
72053;SDS011;59918;51.280;7.950;2023-10-08T13:44:52;19.40;;;10.07;;
72053;SDS011;59918;51.280;7.950;2023-10-08T13:47:18;22.63;;;12.63;;
72053;SDS011;59918;51.280;7.950;2023-10-08T13:49:43;22.98;;;11.20;;
72053;SDS011;59918;51.280;7.950;2023-10-08T13:52:09;21.40;;;11.20;;
72053;SDS011;59918;51.280;7.950;2023-10-08T13:54:34;18.92;;;10.82;;
72053;SDS011;59918;51.280;7.950;2023-10-08T13:56:59;20.38;;;11.60;;
72053;SDS011;59918;51.280;7.950;2023-10-08T13:59:25;18.92;;;11.02;;
72053;SDS011;59918;51.280;7.950;2023-10-08T14:01:50;18.33;;;11.43;;
72053;SDS011;59918;51.280;7.950;2023-10-08T14:04:15;21.75;;;12.23;;
72053;SDS011;59918;51.280;7.950;2023-10-08T14:06:40;22.15;;;13.25;;
72053;SDS011;59918;51.280;7.950;2023-10-08T14:09:06;21.50;;;12.80;;
72053;SDS011;59918;51.280;7.950;2023-10-08T14:11:32;21.60;;;11.63;;
72053;SDS011;59918;51.280;7.950;2023-10-08T14:13:58;19.98;;;11.68;;
72053;SDS011;59918;51.280;7.950;2023-10-08T14:16:23;19.55;;;12.40;;
72053;SDS011;59918;51.280;7.950;2023-10-08T14:18:52;21.25;;;10.85;;
72053;SDS011;59918;51.280;7.950;2023-10-08T14:21:18;26.15;;;18.00;;
72053;SDS011;59918;51.280;7.950;2023-10-08T14:23:43;18.48;;;11.07;;
72053;SDS011;59918;51.280;7.950;2023-10-08T14:26:08;21.23;;;10.90;;
72053;SDS011;59918;51.280;7.950;2023-10-08T14:28:37;15.88;;;9.10;;
72053;SDS011;59918;51.280;7.950;2023-10-08T14:31:02;20.63;;;10.35;;
72053;SDS011;59918;51.280;7.950;2023-10-08T14:33:28;19.13;;;10.38;;
72053;SDS011;59918;51.280;7.950;2023-10-08T14:35:53;18.05;;;9.40;;
72053;SDS011;59918;51.280;7.950;2023-10-08T14:38:18;19.42;;;9.98;;
72053;SDS011;59918;51.280;7.950;2023-10-08T14:40:43;19.00;;;9.65;;